• Join FlightAware (Why Join?)
  • Login
  • US Flag 
11:52AM EST


 

Airport Tracker/Info


-or-


 

Live Flight TrackerFlight Track Log ✈ UAL252 ✈ 11-Jun-2013 ✈ KSAN - KIAH

Flight Track Log - Related Links

Times and Time Zones

All times are in EDT time to prevent confusion due to time zone crossing. See the UAL252 flight status page for this flight to view local times or setup timezone preferences in your user account.

Time Position Orientation Groundspeed Altitude Reporting Facility
EDT Latitude Longitude Course Direction KTS MPH feet Rate Location/Type
03:53PM 32.7408 -117.2214 90° East 142 163 1,300  Level Los Angeles Center
03:54PM 32.7661 -117.3003 291° West 220 253 3,400 2,460 Climbing Los Angeles Center
03:55PM 32.6040 -116.9224 84° East  Level FlightAware Approximate
03:55PM 32.7431 -117.3633 247° West 244 281 6,400  Level Los Angeles Center
03:56PM 32.6167 -116.7826 90° East  Level FlightAware Approximate
03:56PM 32.6931 -117.2825 126° Southeast 281 323 9,100  Level Los Angeles Center
03:57PM 32.6333 -116.6448 90° East  Level FlightAware Approximate
03:57PM 32.6672 -117.1867 108° East 301 346 11,400  Level Los Angeles Center
03:58PM 32.6500 -116.5070 90° East  Level FlightAware Approximate
03:58PM 32.6414 -117.0981 109° East 354 407 12,600  Level Los Angeles Center
04:00PM 32.6106 -116.9567 104° East 372 428 15,500 2,400 Climbing Los Angeles Center
04:01PM 32.6278 -116.8053 82° East 385 443 18,100 2,160 Climbing Los Angeles Center
04:02PM 32.6403 -116.6733 84° East 399 459 20,000 1,800 Climbing Los Angeles Center
04:03PM 32.6564 -116.5086 83° East 422 486 21,900 1,620 Climbing Los Angeles Center
04:04PM 32.6683 -116.3678 84° East 436 502 23,400 1,320 Climbing Los Angeles Center
04:05PM 32.6833 -116.2236 83° East 446 513 25,000 1,500 Climbing Los Angeles Center
04:06PM 32.7000 -116.0469 84° East 452 520 26,900 1,620 Climbing Los Angeles Center
04:07PM 32.7167 -115.8656 84° East 464 534 28,400 1,140 Climbing Los Angeles Center
04:08PM 32.7311 -115.7111 84° East 473 544 29,300 900 Climbing Los Angeles Center
04:09PM 32.7453 -115.5531 84° East 482 555 30,300 960 Climbing Los Angeles Center
04:10PM 32.7519 -115.3908 87° East 492 566 31,300 960 Climbing Los Angeles Center
04:11PM 32.7578 -115.2267 88° East 500 575 32,300 1,200 Climbing Los Angeles Center
04:12PM 32.7614 -115.0297 89° East 497 572 33,800 1,260 Climbing Los Angeles Center
04:13PM 32.7650 -114.9006 88° East 491 565 35,000 1,200 Climbing Los Angeles Center
04:14PM 32.7694 -114.7072 88° East 487 560 36,300 960 Climbing Los Angeles Center
04:15PM 32.7717 -114.5500 89° East 480 552 37,000 300 Climbing Los Angeles Center
04:16PM 32.7744 -114.3933 89° East 475 547 37,000  Level Los Angeles Center
04:17PM 32.7742 -114.2356 90° East 478 550 37,000  Level Los Angeles Center
04:18PM 32.7775 -114.0450 89° East 479 551 37,000  Level Los Angeles Center
04:19PM 32.7897 -113.8856 85° East 484 557 37,000  Level Los Angeles Center
04:20PM 32.8125 -113.7303 80° East 479 551 37,000  Level Los Angeles Center
04:21PM 32.8350 -113.5742 80° East 481 554 37,000  Level Los Angeles Center
04:22PM 32.8417 -113.5239 81° East 479 551 37,000  Level Albuquerque Center
04:23PM 32.8622 -113.3689 81° East 476 548 37,000  Level Albuquerque Center
04:24PM 32.8842 -113.2125 80° East 476 548 37,000  Level Albuquerque Center
04:25PM 32.9061 -113.0550 81° East 478 550 37,000  Level Albuquerque Center
04:26PM 32.9275 -112.9000 81° East 475 547 37,000  Level Albuquerque Center
04:27PM 32.9461 -112.7464 82° East 470 541 37,000  Level Albuquerque Center
04:28PM 32.9356 -112.5878 94° East 479 551 37,000  Level Albuquerque Center
04:29PM 32.9136 -112.4300 99° East 483 556 37,000  Level Albuquerque Center
04:30PM 32.8903 -112.2497 99° East 484 557 37,000  Level Albuquerque Center
04:31PM 32.8708 -112.0928 98° East 483 556 37,000  Level Albuquerque Center
04:32PM 32.8500 -111.9381 99° East 479 551 37,000  Level Albuquerque Center
04:33PM 32.8289 -111.7811 99° East 481 554 37,100  Climbing Albuquerque Center
04:34PM 32.8083 -111.6272 99° East 477 549 37,000 -60 Descending Albuquerque Center
04:35PM 32.7825 -111.4436 99° East 473 544 37,000  Level Albuquerque Center
04:36PM 32.7617 -111.2903 99° East 472 543 37,000  Level Albuquerque Center
04:37PM 32.7400 -111.1394 100° East 468 539 37,000  Level Albuquerque Center
04:38PM 32.7183 -110.9872 100° East 469 540 37,000  Level Albuquerque Center
04:39PM 32.6958 -110.8339 100° East 473 544 37,000  Level Albuquerque Center
04:40PM 32.6733 -110.6808 100° East 473 544 37,100  Climbing Albuquerque Center
04:41PM 32.6469 -110.4967 100° East 473 544 37,000 -60 Descending Albuquerque Center
04:42PM 32.6239 -110.3461 100° East 469 540 37,000  Level Albuquerque Center
04:43PM 32.6039 -110.2103 100° East 471 542 37,000  Level Albuquerque Center
04:44PM 32.5772 -110.0306 100° East 468 539 37,000  Level Albuquerque Center
04:46PM 32.5521 -109.8668 100° East  Level FlightAware Approximate
04:46PM 32.5319 -109.7300 100° East 469 540 37,000  Level Albuquerque Center
04:47PM 32.5064 -109.5781 101° East 474 545 37,000  Level Albuquerque Center
04:48PM 32.4839 -109.4278 100° East 472 543 37,000  Level Albuquerque Center
04:49PM 32.4553 -109.2483 101° East 470 541 37,000  Level Albuquerque Center
04:50PM 32.4317 -109.0972 100° East 472 543 37,000  Level Albuquerque Center
04:51PM 32.4069 -108.9469 101° East 473 544 37,000  Level Albuquerque Center
04:53PM 32.3839 -108.7958 100° East 474 545 37,000  Level Albuquerque Center
04:54PM 32.3597 -108.6461 101° East 472 543 37,000  Level Albuquerque Center
04:55PM 32.3300 -108.4664 101° East 470 541 37,000  Level Albuquerque Center
04:56PM 32.3072 -108.3242 101° East 468 539 37,000 -60 Level Albuquerque Center
04:57PM 32.2822 -108.1739 101° East 467 537 36,900  Descending Albuquerque Center
04:58PM 32.2567 -108.0250 101° East 466 536 37,000  Climbing Albuquerque Center
04:59PM 32.2297 -107.8761 102° East 466 536 37,000  Level Albuquerque Center
05:00PM 32.1878 -107.7017 106° East 464 534 37,000  Level Albuquerque Center
05:01PM 32.1528 -107.5575 106° East 462 532 37,000  Level Albuquerque Center
05:02PM 32.1194 -107.4150 105° East 458 527 37,000  Level Albuquerque Center
05:03PM 32.0842 -107.2719 106° East 458 527 37,000  Level Albuquerque Center
05:04PM 32.0508 -107.1297 105° East 457 526 37,000  Level Albuquerque Center
05:05PM 32.0089 -106.9572 106° East 459 528 37,000  Level Albuquerque Center
05:06PM 31.9733 -106.8167 107° East 454 522 37,000  Level Albuquerque Center
05:07PM 31.9372 -106.6750 107° East 455 524 37,000  Level Albuquerque Center
05:08PM 31.8989 -106.5219 106° East 455 524 37,000  Level Albuquerque Center
05:09PM 31.8642 -106.3758 106° East 462 532 37,000  Level Albuquerque Center
05:10PM 31.8283 -106.2319 106° East 460 529 37,000  Level Albuquerque Center
05:11PM 31.7894 -106.0883 108° East 460 529 37,000  Level Albuquerque Center
05:12PM 31.7528 -105.9467 107° East 454 522 37,000  Level Albuquerque Center
05:13PM 31.7156 -105.8033 107° East 459 528 37,000  Level Albuquerque Center
05:14PM 31.6792 -105.6600 107° East 458 527 37,000  Level Albuquerque Center
05:15PM 31.6422 -105.5167 107° East 459 528 37,000  Level Albuquerque Center
05:16PM 31.5975 -105.3428 107° East 462 532 37,000  Level Albuquerque Center
05:17PM 31.5597 -105.2031 108° East 452 520 37,000  Level Albuquerque Center
05:18PM 31.5231 -105.0611 107° East 452 520 37,000  Level Albuquerque Center
05:19PM 31.4864 -104.9197 107° East 452 520 37,000  Level Albuquerque Center
05:20PM 31.4475 -104.7769 108° East 455 524 37,000  Level Albuquerque Center
05:21PM 31.4100 -104.6356 107° East 455 524 37,000  Level Albuquerque Center
05:22PM 31.3733 -104.4947 107° East 452 520 37,000  Level Albuquerque Center
05:23PM 31.3358 -104.3544 107° East 451 519 37,000  Level Albuquerque Center
05:24PM 31.2992 -104.2144 107° East 451 519 37,000 -60 Level Albuquerque Center
05:25PM 31.2517 -104.0481 108° East 450 518 36,900  Descending Albuquerque Center
05:26PM 31.2136 -103.9097 108° East 450 518 37,000  Climbing Albuquerque Center
05:27PM 31.1739 -103.7669 108° East 449 517 37,000  Level Albuquerque Center
05:28PM 31.1350 -103.6283 108° East 450 518 37,000  Level Albuquerque Center
05:30PM 31.0944 -103.4914 109° East 450 518 37,000  Level Albuquerque Center
05:31PM 31.0558 -103.3519 108° East 452 520 37,000  Level Albuquerque Center
05:32PM 31.0183 -103.2158 108° East 448 516 37,000  Level Albuquerque Center
05:33PM 30.9728 -103.0514 108° East 446 513 37,000  Level Albuquerque Center
05:34PM 30.9336 -102.9122 108° East 451 519 37,000  Level Albuquerque Center
05:35PM 30.8964 -102.7742 107° East 451 519 37,000 -60 Level Albuquerque Center
05:36PM 30.8592 -102.6353 107° East 452 520 36,900  Descending Albuquerque Center
05:36PM 30.8364 -102.5522 108° East 451 519 37,000  Climbing Houston Center
05:37PM 30.7911 -102.3889 108° East 448 516 37,000  Level Houston Center
05:38PM 30.7844 -102.3606 105° East 451 519 37,000  Level Albuquerque Center
05:39PM 30.7817 -102.1869 91° East 454 522 37,000  Level Albuquerque Center
05:39PM 30.7817 -102.0994 90° East 454 522 37,000  Level Houston Center
05:41PM 30.7856 -101.9522 88° East 457 526 37,000  Level Houston Center
05:42PM 30.7875 -101.7772 89° East 456 525 37,000  Level Houston Center
05:43PM 30.7894 -101.6322 89° East 453 521 37,000  Level Houston Center
05:44PM 30.7914 -101.4819 89° East 452 520 37,000  Level Houston Center
05:45PM 30.7933 -101.3364 89° East 451 519 37,000  Level Houston Center
05:46PM 30.7947 -101.1897 89° East 453 521 37,000  Level Houston Center
05:47PM 30.7978 -101.0425 89° East 455 524 37,000  Level Houston Center
05:48PM 30.7981 -100.8961 90° East 453 521 37,000  Level Houston Center
05:49PM 30.7989 -100.7511 90° East 448 516 37,000  Level Houston Center
05:50PM 30.8011 -100.5739 89° East 452 520 37,000  Level Houston Center
05:51PM 30.8022 -100.4272 89° East 452 520 37,000  Level Houston Center
05:52PM 30.8019 -100.2806 90° East 452 520 37,000  Level Houston Center
05:53PM 30.8025 -100.1339 90° East 454 522 37,000  Level Houston Center
05:54PM 30.8036 -99.9867 89° East 454 522 37,000  Level Houston Center
05:55PM 30.8022 -99.8397 91° East 454 522 37,000  Level Houston Center
05:56PM 30.8028 -99.6639 90° East 453 521 37,000  Level Houston Center
05:57PM 30.8022 -99.5164 90° East 456 525 37,000  Level Houston Center
05:58PM 30.8011 -99.3681 90° East 460 529 37,000  Level Houston Center
05:59PM 30.8017 -99.2208 90° East 456 525 37,000  Level Houston Center
06:00PM 30.8003 -99.0544 91° East 457 526 37,000  Level Houston Center
06:01PM 30.7978 -98.9047 91° East 460 529 37,000  Level Houston Center
06:02PM 30.7961 -98.7556 91° East 459 528 37,000  Level Houston Center
06:03PM 30.8006 -98.6044 88° East 462 532 37,000  Level Houston Center
06:04PM 30.8039 -98.4533 88° East 463 533 37,000  Level Houston Center
06:05PM 30.8064 -98.3017 89° East 465 535 37,000  Level Houston Center
06:06PM 30.8092 -98.1503 89° East 464 534 37,000  Level Houston Center
06:07PM 30.8111 -97.9728 89° East 466 536 37,000  Level Houston Center
06:08PM 30.8131 -97.8189 89° East 470 541 37,000  Level Houston Center
06:10PM 30.8147 -97.6681 89° East 467 537 37,000  Level Houston Center
06:11PM 30.8158 -97.5167 89° East 466 536 37,000  Level Houston Center
06:12PM 30.8164 -97.3656 90° East 468 539 37,000  Level Houston Center
06:13PM 30.8192 -97.1861 89° East 485 558 37,000 -60 Level Houston Center
06:14PM 30.8222 -97.0336 89° East 479 551 36,900 -1,260 Descending Houston Center
06:15PM 30.8236 -96.8822 89° East 467 537 34,500 -2,880 Descending Houston Center
06:16PM 30.8253 -96.7289 89° East 472 543 31,000 -3,120 Descending Houston Center
06:17PM 30.8247 -96.5728 90° East 476 548 28,100 -2,820 Descending Houston Center
06:18PM 30.8258 -96.3978 90° East 460 529 25,200 -2,700 Descending Houston Center
06:19PM 30.8186 -96.2556 93° East 437 503 22,600 -2,520 Descending Houston Center
06:20PM 30.7344 -96.1594 136° Southeast 415 478 20,000 -2,880 Descending Houston Center
06:20PM 30.6978 -96.1211 138° Southeast 393 452 18,500 -2,640 Descending Houston Center
06:21PM 30.6583 -96.0744 134° Southeast 380 437 17,300 -1,800 Descending Houston Center
06:21PM 30.6147 -96.0333 141° Southeast 351 404 16,500 -1,560 Descending Houston Center
06:22PM 30.5892 -96.0028 134° Southeast 350 403 15,700 -2,220 Descending Houston Center
06:22PM 30.5547 -95.9700 141° Southeast 335 386 14,500 -2,160 Descending Houston Center
06:23PM 30.5203 -95.9292 134° Southeast 339 390 13,500 -1,920 Descending Houston Center
06:23PM 30.4831 -95.8933 140° Southeast 335 386 12,600 -1,380 Descending Houston Center
06:24PM 30.4486 -95.8581 139° Southeast 338 389 12,100 -600 Descending Houston Center
06:24PM 30.4117 -95.8194 138° Southeast 335 386 12,000 -120 Descending Houston Center
06:25PM 30.3672 -95.7725 138° Southeast 332 382 12,000 -540 Level Houston Center
06:25PM 30.3422 -95.7475 139° Southeast 325 374 11,500 -1,800 Descending Houston Center
06:26PM 30.3019 -95.7031 136° Southeast 324 373 10,200 -1,500 Descending Houston Center
06:27PM 30.2639 -95.6672 141° Southeast 304 350 9,700 -1,020 Descending Houston Center
06:27PM 30.2394 -95.6392 135° Southeast 311 358 9,200 -1,320 Descending Houston Center
06:27PM 30.2172 -95.6147 136° Southeast 284 327 8,600 -1,260 Descending Houston Center
06:28PM 30.1833 -95.5800 138° Southeast 285 328 7,900 -1,320 Descending Houston Center
06:28PM 30.1594 -95.5564 139° Southeast 271 312 7,300 -1,500 Descending Houston Center
06:29PM 30.1272 -95.5228 138° Southeast 270 311 6,400 -1,200 Descending Houston Center
06:30PM 30.1072 -95.4878 123° Southeast 268 308 6,000 -420 Descending Houston Center
06:30PM 30.1061 -95.4447 92° East 278 320 6,000  Level Houston Center
06:31PM 30.1072 -95.3961 88° East 270 311 6,000  Level Houston Center
06:31PM 30.1061 -95.3400 91° East 271 312 6,000 -120 Level Houston Center
06:32PM 30.1053 -95.3069 92° East 275 316 5,900 -1,200 Descending Houston Center
06:32PM 30.1069 -95.2542 88° East 267 307 4,800 -1,680 Descending Houston Center
06:33PM 30.1058 -95.2200 92° East 272 313 4,200 -1,320 Descending Houston Center
06:34PM 30.0983 -95.1386 96° East 248 285 3,100 -720 Descending Houston Center
06:34PM 30.0606 -95.1311 170° South 227 261 3,000 -480 Descending Houston Center
06:35PM 30.0286 -95.1353 186° South 196 226 2,600 -1,020 Descending Houston Center